Time;durP1;ratioP1;P1;durP2;ratioP2;P2;SDS_P1;SDS_P2;PMS_P1;PMS_P2;Temp;Humidity;BMP_temperature;BMP_pressure;BME280_temperature;BME280_humidity;BME280_pressure;Samples;Min_cycle;Max_cycle;Signal;HPM_P1;HPM_P2
2021/04/17 00:01:59;;;;;;;0.73;0.50;;;5.80;61.20;;;;;;5052865;28;20071;-78
2021/04/17 00:04:28;;;;;;;1.35;0.70;;;5.80;61.30;;;;;;5052919;28;20048;-77
2021/04/17 00:06:55;;;;;;;0.90;0.68;;;5.80;61.50;;;;;;5036439;28;20040;-77
2021/04/17 00:09:24;;;;;;;0.90;0.50;;;5.80;61.50;;;;;;5052557;28;20076;-78
2021/04/17 00:12:05;;;;;;;0.68;0.40;;;5.80;61.60;;;;;;5053725;28;20119;-76
2021/04/17 00:14:40;;;;;;;1.77;0.70;;;5.70;61.70;;;;;;5038959;28;20068;-77
2021/04/17 00:17:07;;;;;;;1.40;0.85;;;5.70;61.80;;;;;;5053606;28;20554;-79
2021/04/17 00:19:34;;;;;;;0.98;0.50;;;5.60;61.80;;;;;;5053989;28;20037;-79
2021/04/17 00:22:00;;;;;;;0.90;0.40;;;5.70;62.00;;;;;;5052322;28;20045;-78
2021/04/17 00:24:26;;;;;;;0.95;0.70;;;5.60;62.00;;;;;;5035811;28;20079;-77
2021/04/17 00:26:52;;;;;;;1.17;0.70;;;5.60;62.00;;;;;;5052347;28;20033;-78
2021/04/17 00:29:19;;;;;;;0.80;0.55;;;5.60;62.10;;;;;;5054019;28;20037;-78
2021/04/17 00:31:45;;;;;;;0.95;0.47;;;5.60;62.20;;;;;;5035425;28;20060;-76
2021/04/17 00:34:11;;;;;;;2.13;0.70;;;5.60;62.30;;;;;;5053399;28;20035;-77
2021/04/17 00:36:37;;;;;;;0.80;0.63;;;5.50;62.30;;;;;;5051953;28;20116;-78
2021/04/17 00:39:06;;;;;;;0.75;0.50;;;5.40;62.30;;;;;;5053145;28;20123;-78
2021/04/17 00:41:34;;;;;;;0.68;0.55;;;5.50;62.50;;;;;;5048431;28;20129;-77
2021/04/17 00:44:00;;;;;;;1.35;0.40;;;5.40;62.50;;;;;;5035331;28;20029;-78
2021/04/17 00:46:27;;;;;;;1.08;0.55;;;5.50;62.60;;;;;;5053536;28;20127;-76
2021/04/17 00:48:54;;;;;;;1.02;0.70;;;5.40;62.60;;;;;;5053039;28;20045;-76
2021/04/17 00:51:20;;;;;;;0.73;0.50;;;5.40;62.70;;;;;;5051872;28;20068;-77
2021/04/17 00:53:46;;;;;;;0.45;0.40;;;5.40;62.70;;;;;;5052606;28;20124;-76
2021/04/17 00:56:13;;;;;;;0.65;0.43;;;5.40;62.80;;;;;;5052392;28;20049;-76
2021/04/17 00:58:40;;;;;;;0.85;0.50;;;5.40;62.80;;;;;;5035427;28;20855;-76
2021/04/17 01:01:08;;;;;;;0.60;0.57;;;5.40;62.80;;;;;;5051664;28;20099;-78
2021/04/17 01:03:45;;;;;;;0.80;0.40;;;5.40;62.90;;;;;;5048609;28;20041;-78
2021/04/17 01:06:24;;;;;;;0.73;0.47;;;5.30;62.90;;;;;;5050061;28;20068;-77
2021/04/17 01:09:03;;;;;;;1.02;0.50;;;5.40;62.90;;;;;;5052054;28;20025;-76
2021/04/17 01:11:45;;;;;;;0.60;0.50;;;5.30;63.00;;;;;;5051468;28;20482;-76
2021/04/17 01:14:12;;;;;;;;;;;5.30;63.00;;;;;;5053123;28;20053;-77
2021/04/17 01:16:38;;;;;;;0.95;0.35;;;5.30;62.90;;;;;;5051315;28;19905;-76
2021/04/17 01:19:09;;;;;;;0.35;0.30;;;5.30;62.80;;;;;;5053390;28;20032;-77
2021/04/17 01:21:38;;;;;;;1.23;0.40;;;5.30;62.80;;;;;;5051572;28;20021;-77
2021/04/17 01:24:11;;;;;;;0.40;0.40;;;5.20;62.90;;;;;;5052102;28;20052;-76
2021/04/17 01:26:38;;;;;;;0.82;0.50;;;5.20;63.00;;;;;;5034740;28;20070;-76
2021/04/17 01:29:04;;;;;;;1.17;0.45;;;5.20;63.00;;;;;;5051712;28;20098;-76
2021/04/17 01:31:34;;;;;;;1.10;0.50;;;5.20;63.10;;;;;;5053090;28;20041;-77
2021/04/17 01:34:02;;;;;;;0.52;0.40;;;5.20;63.20;;;;;;5034929;28;20063;-77
2021/04/17 01:36:31;;;;;;;1.05;0.55;;;5.10;63.20;;;;;;5051005;28;20512;-76
2021/04/17 01:39:11;;;;;;;1.65;0.50;;;5.20;63.40;;;;;;5052358;28;20040;-76
2021/04/17 01:41:44;;;;;;;0.45;0.40;;;5.20;63.40;;;;;;5052760;28;20045;-75
2021/04/17 01:44:15;;;;;;;0.50;0.40;;;5.10;63.40;;;;;;5034365;28;20110;-76
2021/04/17 01:46:47;;;;;;;0.65;0.40;;;5.20;63.50;;;;;;5052569;28;20043;-76
2021/04/17 01:49:15;;;;;;;0.65;0.38;;;5.10;63.50;;;;;;5051229;28;20131;-76
2021/04/17 01:51:43;;;;;;;0.73;0.50;;;5.00;63.60;;;;;;5052114;28;20093;-76
2021/04/17 01:54:27;;;;;;;0.30;0.20;;;5.00;63.70;;;;;;5034520;28;20477;-77
2021/04/17 01:57:01;;;;;;;0.43;0.35;;;5.00;64.00;;;;;;5050844;28;20068;-77
2021/04/17 01:59:29;;;;;;;0.43;0.30;;;4.90;64.00;;;;;;5050725;28;20033;-77
2021/04/17 02:01:55;;;;;;;0.35;0.30;;;4.90;64.10;;;;;;5050748;28;20033;-77
2021/04/17 02:04:22;;;;;;;0.30;0.30;;;4.80;64.20;;;;;;5052224;28;20065;-77
2021/04/17 02:06:48;;;;;;;0.40;0.30;;;4.80;64.30;;;;;;5033412;28;20123;-77
2021/04/17 02:09:15;;;;;;;0.60;0.35;;;4.70;64.30;;;;;;5051857;28;20034;-77
2021/04/17 02:11:41;;;;;;;1.67;0.50;;;4.70;64.50;;;;;;5051857;28;20490;-77
2021/04/17 02:14:07;;;;;;;1.67;0.50;;;4.70;64.60;;;;;;5051261;28;20043;-77
2021/04/17 02:16:41;;;;;;;0.32;0.30;;;4.70;64.70;;;;;;5050673;28;20041;-77
2021/04/17 02:19:13;;;;;;;0.75;0.35;;;4.60;64.70;;;;;;5050864;28;20033;-77
2021/04/17 02:21:44;;;;;;;0.88;0.50;;;4.70;64.80;;;;;;5034616;28;20086;-77
2021/04/17 02:24:10;;;;;;;0.43;0.30;;;4.60;64.90;;;;;;5050505;28;20429;-77
2021/04/17 02:26:37;;;;;;;0.47;0.30;;;4.60;64.90;;;;;;5050528;28;20033;-77
2021/04/17 02:29:05;;;;;;;0.35;0.30;;;4.60;65.00;;;;;;5050629;28;20119;-77
2021/04/17 02:31:32;;;;;;;0.90;0.50;;;4.60;65.10;;;;;;5052136;28;20048;-77
2021/04/17 02:33:58;;;;;;;0.30;0.30;;;4.50;65.10;;;;;;5050371;28;20053;-78
2021/04/17 02:36:25;;;;;;;1.05;0.52;;;4.50;65.20;;;;;;5050569;28;20084;-78
2021/04/17 02:38:51;;;;;;;0.68;0.30;;;4.50;65.30;;;;;;5050058;28;20045;-78
2021/04/17 02:41:18;;;;;;;0.30;0.30;;;4.50;65.30;;;;;;5051799;28;20037;-78
2021/04/17 02:43:45;;;;;;;0.45;0.35;;;4.50;65.40;;;;;;5033739;28;20071;-77
2021/04/17 02:46:12;;;;;;;1.02;0.47;;;4.50;65.40;;;;;;5033562;28;20038;-76
2021/04/17 02:48:40;;;;;;;0.50;0.40;;;4.50;65.50;;;;;;5050758;28;20510;-77
2021/04/17 02:51:06;;;;;;;0.65;0.47;;;4.40;65.50;;;;;;5050045;28;20104;-75
2021/04/17 02:53:33;;;;;;;0.30;0.30;;;4.40;65.50;;;;;;5049976;28;20124;-75
2021/04/17 02:55:59;;;;;;;0.70;0.43;;;4.40;65.60;;;;;;5050108;28;20090;-76
2021/04/17 02:58:26;;;;;;;0.47;0.45;;;4.40;65.60;;;;;;5049965;28;20045;-77
2021/04/17 03:00:52;;;;;;;0.40;0.40;;;4.40;65.70;;;;;;5033383;28;20063;-77
2021/04/17 03:03:18;;;;;;;0.80;0.45;;;4.30;65.80;;;;;;5049953;28;20036;-76
2021/04/17 03:05:45;;;;;;;1.02;0.65;;;4.30;65.80;;;;;;5050493;28;20029;-76
2021/04/17 03:08:11;;;;;;;1.63;0.40;;;4.40;66.00;;;;;;5051663;28;20033;-76
2021/04/17 03:10:38;;;;;;;0.60;0.35;;;4.30;66.00;;;;;;5051599;28;20085;-76
2021/04/17 03:13:06;;;;;;;1.27;0.65;;;4.30;66.10;;;;;;5033385;28;20446;-78
2021/04/17 03:15:32;;;;;;;0.75;0.40;;;4.30;66.20;;;;;;5050103;28;20506;-77
2021/04/17 03:17:58;;;;;;;1.58;0.45;;;4.20;66.30;;;;;;5052862;28;20053;-77
2021/04/17 03:20:24;;;;;;;0.65;0.43;;;4.20;66.40;;;;;;5053358;28;20379;-77
2021/04/17 03:22:51;;;;;;;0.68;0.38;;;4.20;66.40;;;;;;5053865;28;20045;-77
2021/04/17 03:25:17;;;;;;;0.93;0.47;;;4.20;66.50;;;;;;5054840;28;20174;-77
2021/04/17 03:27:44;;;;;;;0.40;0.40;;;4.20;66.60;;;;;;5053177;28;20090;-76
2021/04/17 03:30:13;;;;;;;0.68;0.47;;;4.30;66.80;;;;;;5053315;28;20045;-77
2021/04/17 03:32:39;;;;;;;0.40;0.38;;;4.20;66.70;;;;;;5052737;28;20184;-76
2021/04/17 03:35:08;;;;;;;1.45;0.60;;;4.20;66.80;;;;;;5036477;28;20033;-76
2021/04/17 03:37:35;;;;;;;0.50;0.47;;;4.10;66.70;;;;;;5054771;28;20123;-76
2021/04/17 03:40:02;;;;;;;1.02;0.40;;;4.10;66.80;;;;;;5053169;28;20056;-76
2021/04/17 03:42:29;;;;;;;0.70;0.40;;;4.10;66.90;;;;;;5036638;28;20068;-76
2021/04/17 03:44:56;;;;;;;0.50;0.30;;;4.10;67.00;;;;;;5054139;28;20659;-76
2021/04/17 03:47:22;;;;;;;0.28;0.28;;;4.10;67.10;;;;;;5036471;28;20064;-76
2021/04/17 03:49:48;;;;;;;0.60;0.35;;;4.10;67.20;;;;;;5052641;28;20033;-76
2021/04/17 03:52:15;;;;;;;1.83;0.47;;;4.10;67.30;;;;;;5052859;28;20044;-77
2021/04/17 03:54:41;;;;;;;0.50;0.40;;;4.10;67.40;;;;;;5052666;28;20127;-77
2021/04/17 03:57:08;;;;;;;0.80;0.50;;;4.00;67.40;;;;;;5052607;28;20040;-77
2021/04/17 03:59:34;;;;;;;1.17;0.60;;;4.00;67.50;;;;;;5052787;28;20494;-78
2021/04/17 04:02:00;;;;;;;1.25;0.65;;;4.10;67.60;;;;;;5052663;28;20052;-78
2021/04/17 04:04:26;;;;;;;0.20;0.20;;;4.00;67.70;;;;;;5036357;28;20500;-77
2021/04/17 04:06:53;;;;;;;0.73;0.40;;;4.00;67.70;;;;;;5052880;28;20063;-77
2021/04/17 04:09:19;;;;;;;1.25;0.50;;;4.00;67.80;;;;;;5052777;28;20406;-77
2021/04/17 04:11:45;;;;;;;0.95;0.40;;;4.00;67.80;;;;;;5052756;28;20040;-76
2021/04/17 04:14:11;;;;;;;0.30;0.30;;;4.00;68.00;;;;;;5052675;28;20049;-77
2021/04/17 04:16:37;;;;;;;0.60;0.50;;;4.10;68.10;;;;;;5052827;28;20044;-75
2021/04/17 04:19:03;;;;;;;0.63;0.40;;;4.10;68.00;;;;;;5036258;28;20049;-77
2021/04/17 04:21:29;;;;;;;1.75;0.20;;;4.10;68.10;;;;;;5036328;28;20087;-78
2021/04/17 04:23:56;;;;;;;0.77;0.40;;;4.00;68.00;;;;;;5035729;28;20068;-78
2021/04/17 04:26:22;;;;;;;0.45;0.30;;;4.10;68.10;;;;;;5052939;28;20048;-78
2021/04/17 04:28:48;;;;;;;0.45;0.30;;;4.20;68.20;;;;;;5051451;28;20546;-78
2021/04/17 04:31:14;;;;;;;0.32;0.22;;;4.10;68.20;;;;;;5035622;28;20033;-78
2021/04/17 04:33:40;;;;;;;0.32;0.30;;;4.10;68.20;;;;;;5052383;28;20045;-78
2021/04/17 04:36:07;;;;;;;0.75;0.45;;;4.10;68.30;;;;;;5052295;28;20033;-78
2021/04/17 04:38:33;;;;;;;1.27;0.50;;;4.10;68.30;;;;;;5035522;28;20490;-78
2021/04/17 04:40:59;;;;;;;0.40;0.32;;;4.10;68.40;;;;;;5052181;28;20033;-78
2021/04/17 04:43:26;;;;;;;1.05;0.40;;;4.10;68.50;;;;;;5052154;28;20029;-78
2021/04/17 04:45:52;;;;;;;0.88;0.38;;;4.10;68.60;;;;;;5035553;28;20082;-77
2021/04/17 04:48:18;;;;;;;0.30;0.20;;;4.10;68.60;;;;;;5052092;28;20394;-77
2021/04/17 04:50:44;;;;;;;1.23;0.60;;;4.10;68.60;;;;;;5052205;28;20040;-77
2021/04/17 04:53:12;;;;;;;0.52;0.35;;;4.10;68.70;;;;;;5036043;28;20033;-78
2021/04/17 04:55:38;;;;;;;0.60;0.47;;;4.10;68.70;;;;;;5052115;28;20033;-77
2021/04/17 04:58:11;;;;;;;0.47;0.38;;;4.10;68.70;;;;;;5053559;28;20048;-78
2021/04/17 05:00:37;;;;;;;0.82;0.43;;;4.10;68.80;;;;;;5035384;28;20037;-78
2021/04/17 05:03:04;;;;;;;0.47;0.30;;;4.10;68.80;;;;;;5053541;28;20053;-77
2021/04/17 05:05:30;;;;;;;0.32;0.30;;;4.10;68.80;;;;;;5051637;28;20045;-77
2021/04/17 05:07:56;;;;;;;0.90;0.30;;;4.10;68.80;;;;;;5035079;28;20033;-78
2021/04/17 05:10:23;;;;;;;0.75;0.40;;;4.10;68.90;;;;;;5051787;28;20061;-79
2021/04/17 05:12:49;;;;;;;0.30;0.30;;;4.20;69.00;;;;;;5035136;28;20060;-78
2021/04/17 05:15:15;;;;;;;1.10;0.40;;;4.20;69.00;;;;;;5035304;28;20102;-78
2021/04/17 05:17:42;;;;;;;0.22;0.22;;;4.20;69.10;;;;;;5034940;28;20371;-78
2021/04/17 05:20:09;;;;;;;1.23;0.47;;;4.10;69.10;;;;;;5051824;28;20063;-78
2021/04/17 05:22:36;;;;;;;0.98;0.50;;;4.20;69.20;;;;;;5051822;28;20095;-78
2021/04/17 05:25:03;;;;;;;0.85;0.40;;;4.20;69.20;;;;;;5052708;28;20487;-78
2021/04/17 05:27:30;;;;;;;0.60;0.30;;;4.30;69.20;;;;;;5051897;28;20094;-78
2021/04/17 05:29:56;;;;;;;0.40;0.40;;;4.30;69.20;;;;;;5051628;28;20041;-78
2021/04/17 05:32:22;;;;;;;0.60;0.40;;;4.30;69.20;;;;;;5034731;28;20076;-78
2021/04/17 05:34:48;;;;;;;0.52;0.45;;;4.40;69.20;;;;;;5051186;28;20060;-78
2021/04/17 05:37:14;;;;;;;0.63;0.30;;;4.50;69.90;;;;;;5052571;28;20131;-78
2021/04/17 05:39:41;;;;;;;0.95;0.35;;;4.50;69.20;;;;;;5051116;28;20106;-78
2021/04/17 05:42:08;;;;;;;0.50;0.35;;;4.40;69.10;;;;;;5051169;28;20412;-77
2021/04/17 05:44:34;;;;;;;0.70;0.50;;;4.60;69.20;;;;;;5051604;28;20029;-78
2021/04/17 05:47:01;;;;;;;0.32;0.22;;;4.60;69.20;;;;;;5051151;28;20036;-77
2021/04/17 05:49:27;;;;;;;0.40;0.38;;;4.70;69.20;;;;;;5052766;28;20079;-76
2021/04/17 05:51:53;;;;;;;1.50;0.30;;;4.70;69.10;;;;;;5052086;28;20099;-76
2021/04/17 05:54:20;;;;;;;0.75;0.40;;;4.80;69.20;;;;;;5034239;28;20059;-76
2021/04/17 05:56:46;;;;;;;0.30;0.30;;;4.80;69.10;;;;;;5052345;28;20044;-77
2021/04/17 05:59:12;;;;;;;1.13;0.22;;;4.80;69.10;;;;;;5034803;28;20057;-77
2021/04/17 06:01:39;;;;;;;0.80;0.40;;;4.90;69.20;;;;;;5050653;28;20041;-77
2021/04/17 06:04:06;;;;;;;0.52;0.30;;;5.00;69.20;;;;;;5034354;28;20037;-78
2021/04/17 06:06:32;;;;;;;0.20;0.20;;;5.00;69.10;;;;;;5050875;28;20143;-77
2021/04/17 06:08:59;;;;;;;0.80;0.28;;;5.10;69.10;;;;;;5052676;28;20538;-77
2021/04/17 06:11:26;;;;;;;0.60;0.25;;;5.10;68.90;;;;;;5034585;28;20072;-77
2021/04/17 06:13:53;;;;;;;0.80;0.40;;;5.20;68.90;;;;;;5050951;28;20485;-77
2021/04/17 06:16:19;;;;;;;0.68;0.50;;;5.30;68.90;;;;;;5034427;28;20073;-76
2021/04/17 06:18:46;;;;;;;0.30;0.30;;;5.30;68.80;;;;;;5051369;28;20080;-77
2021/04/17 06:21:13;;;;;;;0.22;0.20;;;5.50;68.80;;;;;;5050816;28;20043;-77
2021/04/17 06:23:39;;;;;;;0.68;0.35;;;5.50;68.70;;;;;;5050895;28;20037;-77
2021/04/17 06:26:05;;;;;;;1.08;0.43;;;5.60;68.60;;;;;;5050865;28;20025;-76
2021/04/17 06:28:32;;;;;;;0.40;0.30;;;5.70;68.60;;;;;;5051199;28;20040;-77
2021/04/17 06:30:59;;;;;;;0.30;0.30;;;5.80;68.50;;;;;;5051632;28;20048;-76
2021/04/17 06:33:26;;;;;;;1.30;0.50;;;5.90;68.50;;;;;;5050126;28;20057;-77
2021/04/17 06:35:52;;;;;;;0.90;0.70;;;5.90;68.40;;;;;;5051143;28;20116;-76
2021/04/17 06:38:18;;;;;;;0.80;0.35;;;6.10;68.40;;;;;;5050343;28;20490;-77
2021/04/17 06:40:46;;;;;;;1.33;0.50;;;6.10;68.30;;;;;;5052065;28;20045;-77
2021/04/17 06:43:15;;;;;;;0.77;0.40;;;6.20;68.30;;;;;;5050892;28;20037;-77
2021/04/17 06:45:42;;;;;;;0.82;0.50;;;6.20;68.10;;;;;;5051440;28;20056;-76
2021/04/17 06:48:10;;;;;;;1.50;0.50;;;6.30;68.20;;;;;;5050321;28;20044;-78
2021/04/17 06:50:38;;;;;;;0.73;0.35;;;6.40;68.20;;;;;;5050298;28;20045;-77
2021/04/17 06:53:09;;;;;;;0.63;0.38;;;6.40;68.00;;;;;;5053290;28;20374;-78
2021/04/17 06:55:36;;;;;;;0.50;0.40;;;6.70;68.20;;;;;;5053728;28;20468;-76
2021/04/17 06:58:03;;;;;;;0.32;0.30;;;6.70;68.20;;;;;;5037051;28;20037;-77
2021/04/17 07:00:29;;;;;;;1.02;0.50;;;6.70;68.00;;;;;;5053604;28;20474;-78
2021/04/17 07:02:56;;;;;;;0.65;0.40;;;6.80;67.90;;;;;;5037310;28;20037;-77
2021/04/17 07:05:22;;;;;;;0.75;0.43;;;6.90;67.90;;;;;;5054920;28;20030;-78
2021/04/17 07:07:49;;;;;;;0.80;0.52;;;7.00;67.80;;;;;;5037558;28;20037;-76
2021/04/17 07:10:17;;;;;;;1.77;0.40;;;7.10;67.80;;;;;;5055290;28;20033;-75
2021/04/17 07:12:45;;;;;;;0.45;0.30;;;7.20;67.70;;;;;;5053557;28;20036;-76
2021/04/17 07:15:13;;;;;;;0.35;0.22;;;7.30;67.50;;;;;;5054890;28;20038;-77
2021/04/17 07:17:40;;;;;;;0.50;0.30;;;7.40;67.40;;;;;;5053898;28;20049;-77
2021/04/17 07:20:09;;;;;;;0.60;0.30;;;7.60;67.40;;;;;;5055158;28;20037;-77
2021/04/17 07:22:38;;;;;;;0.98;0.32;;;7.60;67.10;;;;;;5053168;28;20851;-77
2021/04/17 07:25:19;;;;;;;0.30;0.20;;;7.80;66.90;;;;;;5053158;28;20044;-77
2021/04/17 07:27:53;;;;;;;0.30;0.30;;;7.80;66.80;;;;;;5036643;28;20041;-77
2021/04/17 07:30:29;;;;;;;0.30;0.20;;;8.00;66.70;;;;;;5054853;28;20095;-77
2021/04/17 07:33:14;;;;;;;0.30;0.30;;;8.20;66.60;;;;;;5053163;28;20521;-77
2021/04/17 07:35:46;;;;;;;0.40;0.20;;;8.30;66.30;;;;;;5053042;28;20064;-77
2021/04/17 07:38:18;;;;;;;0.20;0.20;;;8.40;66.10;;;;;;5053480;28;20132;-77
2021/04/17 07:40:58;;;;;;;0.45;0.30;;;8.50;65.90;;;;;;5054299;28;20045;-77
2021/04/17 07:43:54;;;;;;;0.30;0.30;;;8.50;65.80;;;;;;5053126;28;20051;-77
2021/04/17 07:46:27;;;;;;;0.50;0.30;;;8.70;65.70;;;;;;5053309;28;20571;-76
2021/04/17 07:49:13;;;;;;;0.77;0.40;;;9.00;65.70;;;;;;5053079;28;20053;-77
2021/04/17 07:52:15;;;;;;;1.17;0.38;;;9.00;65.20;;;;;;5053094;28;20535;-77
2021/04/17 07:55:05;;;;;;;0.35;0.30;;;9.10;65.00;;;;;;5052914;28;20083;-77
2021/04/17 07:57:34;;;;;;;0.45;0.30;;;9.30;64.90;;;;;;5053707;28;20462;-76
2021/04/17 08:00:00;;;;;;;0.25;0.25;;;9.50;64.60;;;;;;5053998;28;20106;-76
2021/04/17 08:02:27;;;;;;;0.80;0.30;;;9.70;64.40;;;;;;5052430;28;20025;-77
2021/04/17 08:04:54;;;;;;;0.20;0.20;;;9.80;64.20;;;;;;5052389;28;20033;-76
2021/04/17 08:07:21;;;;;;;0.30;0.30;;;10.00;64.00;;;;;;5054375;28;20033;-77
2021/04/17 08:09:48;;;;;;;0.20;0.20;;;10.20;63.80;;;;;;5053183;28;20037;-77
2021/04/17 08:12:17;;;;;;;0.88;0.47;;;10.30;63.60;;;;;;5052832;28;20040;-77
2021/04/17 08:14:44;;;;;;;0.57;0.40;;;10.40;63.50;;;;;;5052619;28;20102;-77
2021/04/17 08:17:11;;;;;;;0.30;0.30;;;10.40;63.30;;;;;;5035888;28;20048;-77
2021/04/17 08:19:38;;;;;;;0.47;0.40;;;10.50;63.10;;;;;;5052384;28;20045;-77
2021/04/17 08:22:04;;;;;;;0.93;0.35;;;10.60;63.10;;;;;;5052617;28;20098;-76
2021/04/17 08:24:31;;;;;;;0.73;0.20;;;10.80;62.90;;;;;;5052447;28;20084;-76
2021/04/17 08:26:59;;;;;;;0.57;0.50;;;10.90;62.80;;;;;;5053645;28;20045;-77
2021/04/17 08:29:58;;;;;;;0.20;0.20;;;11.00;62.60;;;;;;5053575;28;20047;-77
2021/04/17 08:32:28;;;;;;;0.10;0.10;;;11.20;62.30;;;;;;5052369;28;20057;-78
2021/04/17 08:35:00;;;;;;;0.45;0.20;;;11.40;62.30;;;;;;5052270;28;20498;-78
2021/04/17 08:37:27;;;;;;;1.23;0.47;;;11.60;62.00;;;;;;5053272;28;20136;-78
2021/04/17 08:39:54;;;;;;;0.22;0.22;;;11.70;61.80;;;;;;5053424;28;20045;-78
2021/04/17 08:42:45;;;;;;;0.68;0.20;;;11.80;61.60;;;;;;5053492;28;20029;-78
2021/04/17 08:45:14;;;;;;;0.57;0.20;;;12.00;61.40;;;;;;5035922;28;20037;-78
2021/04/17 08:48:00;;;;;;;1.00;0.30;;;12.00;61.40;;;;;;5052042;28;20037;-77
2021/04/17 08:50:34;;;;;;;0.30;0.30;;;12.20;60.90;;;;;;5051710;28;20045;-74
2021/04/17 08:53:09;;;;;;;1.17;0.43;;;12.40;61.00;;;;;;5053140;28;20072;-78
2021/04/17 08:55:51;;;;;;;1.52;0.40;;;12.40;60.80;;;;;;5053472;28;20053;-77
2021/04/17 08:58:21;;;;;;;1.08;0.47;;;12.40;60.60;;;;;;5051815;28;20120;-77
2021/04/17 09:01:09;;;;;;;0.47;0.40;;;12.50;60.60;;;;;;5052093;28;20074;-78
2021/04/17 09:03:42;;;;;;;0.40;0.38;;;12.60;60.30;;;;;;5053145;28;20112;-77
2021/04/17 09:06:30;;;;;;;0.40;0.40;;;12.80;60.10;;;;;;5035814;28;20071;-79
2021/04/17 09:09:29;;;;;;;0.40;0.30;;;12.80;60.00;;;;;;5051804;28;20048;-79
2021/04/17 09:12:15;;;;;;;0.70;0.47;;;12.90;59.90;;;;;;5051694;28;20128;-76
2021/04/17 09:14:50;;;;;;;0.82;0.40;;;13.00;59.80;;;;;;5052981;28;20104;-77
2021/04/17 09:17:37;;;;;;;0.50;0.30;;;13.00;59.70;;;;;;5034812;28;20219;-77
2021/04/17 09:20:07;;;;;;;0.57;0.47;;;13.10;59.40;;;;;;5051525;28;20040;-76
2021/04/17 09:22:48;;;;;;;0.50;0.40;;;13.20;59.40;;;;;;5051538;28;20091;-77
2021/04/17 09:25:36;;;;;;;0.20;0.20;;;13.20;59.20;;;;;;5052968;28;20091;-75
2021/04/17 09:28:02;;;;;;;0.35;0.32;;;13.20;59.20;;;;;;5051054;28;20059;-76
2021/04/17 09:30:29;;;;;;;0.60;0.20;;;13.20;59.40;;;;;;5052984;28;20475;-75
2021/04/17 09:32:57;;;;;;;0.50;0.35;;;13.40;59.30;;;;;;5034369;28;20037;-76
2021/04/17 09:35:35;;;;;;;0.70;0.50;;;13.50;59.00;;;;;;5035283;28;20037;-80
2021/04/17 09:38:10;;;;;;;0.65;0.43;;;13.70;58.80;;;;;;5051109;28;20041;-77
2021/04/17 09:40:40;;;;;;;1.00;0.43;;;13.80;58.70;;;;;;5052624;28;20021;-77
2021/04/17 09:43:19;;;;;;;0.98;0.38;;;13.90;58.30;;;;;;5034546;28;20029;-76
2021/04/17 09:45:49;;;;;;;0.57;0.38;;;14.00;58.20;;;;;;5034517;28;20116;-77
2021/04/17 09:48:16;;;;;;;1.35;0.50;;;14.10;58.10;;;;;;5034642;28;20080;-77
2021/04/17 09:50:42;;;;;;;0.40;0.40;;;14.20;57.90;;;;;;5034613;28;20043;-76
2021/04/17 09:53:21;;;;;;;0.40;0.40;;;14.50;57.80;;;;;;5052365;28;20037;-76
2021/04/17 09:56:07;;;;;;;0.52;0.30;;;14.50;57.60;;;;;;5050611;28;20045;-76
2021/04/17 09:58:36;;;;;;;0.32;0.30;;;14.60;57.50;;;;;;5034345;28;20183;-76
2021/04/17 10:01:10;;;;;;;1.85;0.50;;;14.90;57.20;;;;;;5057921;28;20021;-75
2021/04/17 10:03:39;;;;;;;0.73;0.50;;;14.90;57.10;;;;;;5059192;28;20055;-77
2021/04/17 10:06:24;;;;;;;0.63;0.60;;;14.70;57.00;;;;;;5041919;28;20037;-76
2021/04/17 10:08:51;;;;;;;0.40;0.40;;;14.70;57.10;;;;;;5015360;28;20048;-76
2021/04/17 10:11:21;;;;;;;0.65;0.50;;;14.60;57.50;;;;;;4997640;28;20139;-76
2021/04/17 10:13:48;;;;;;;0.73;0.60;;;14.60;57.40;;;;;;5030116;28;20050;-76
2021/04/17 10:16:23;;;;;;;0.60;0.50;;;14.60;57.30;;;;;;5014058;28;20037;-74
2021/04/17 10:18:50;;;;;;;1.58;0.68;;;14.50;57.20;;;;;;4996923;28;20436;-74
2021/04/17 10:21:21;;;;;;;0.40;0.40;;;14.50;57.10;;;;;;5030126;28;20155;-73
2021/04/17 10:24:16;;;;;;;1.20;0.70;;;14.50;57.20;;;;;;5030119;28;20049;-73
2021/04/17 10:26:52;;;;;;;0.68;0.40;;;14.40;57.00;;;;;;5029550;28;20033;-73
2021/04/17 10:29:19;;;;;;;1.83;0.57;;;14.40;57.30;;;;;;5030245;28;20488;-75
2021/04/17 10:31:57;;;;;;;0.45;0.45;;;14.50;57.30;;;;;;5013552;28;20179;-75
2021/04/17 10:34:24;;;;;;;0.93;0.60;;;14.50;57.10;;;;;;5013495;28;20049;-76
2021/04/17 10:37:07;;;;;;;1.60;0.75;;;14.50;56.80;;;;;;5036644;28;20056;-75
2021/04/17 10:39:33;;;;;;;1.17;0.57;;;14.30;56.90;;;;;;5050543;28;20037;-76
2021/04/17 10:42:05;;;;;;;1.10;0.57;;;14.20;57.40;;;;;;5050383;28;20076;-75
2021/04/17 10:44:32;;;;;;;1.65;0.88;;;14.30;57.40;;;;;;5047169;28;20037;-75
2021/04/17 10:47:00;;;;;;;0.55;0.50;;;14.40;57.00;;;;;;5052492;28;20041;-76
2021/04/17 10:49:29;;;;;;;0.77;0.60;;;14.50;56.60;;;;;;5050737;28;20049;-75
2021/04/17 10:51:56;;;;;;;0.80;0.60;;;14.50;57.00;;;;;;5051513;28;20060;-75
2021/04/17 10:54:23;;;;;;;0.77;0.50;;;14.50;56.40;;;;;;5034895;28;20043;-74
2021/04/17 10:57:00;;;;;;;0.75;0.70;;;14.50;56.40;;;;;;5051286;28;20072;-75
2021/04/17 10:59:27;;;;;;;0.57;0.45;;;14.50;56.30;;;;;;5034868;28;20080;-74
2021/04/17 11:01:53;;;;;;;0.40;0.40;;;14.50;56.20;;;;;;5038995;28;20518;-74
2021/04/17 11:04:19;;;;;;;1.25;0.63;;;14.60;56.10;;;;;;5057466;28;20509;-75
2021/04/17 11:06:48;;;;;;;0.73;0.68;;;14.70;55.80;;;;;;5055092;28;20119;-74
2021/04/17 11:09:19;;;;;;;1.17;0.60;;;14.70;55.50;;;;;;5044338;28;20041;-74
2021/04/17 11:12:03;;;;;;;0.85;0.60;;;14.70;55.30;;;;;;5061699;28;20033;-74
2021/04/17 11:14:31;;;;;;;1.42;0.60;;;14.60;55.30;;;;;;5040994;28;20063;-75
2021/04/17 11:16:57;;;;;;;1.05;0.57;;;14.60;55.40;;;;;;5060838;28;20059;-74
2021/04/17 11:19:33;;;;;;;0.88;0.60;;;14.50;55.50;;;;;;5060841;28;20037;-74
2021/04/17 11:22:11;;;;;;;1.52;0.50;;;14.30;55.70;;;;;;5056229;28;20148;-74
2021/04/17 11:24:42;;;;;;;1.63;0.68;;;14.10;55.90;;;;;;5054334;28;20498;-73
2021/04/17 11:27:08;;;;;;;2.10;0.75;;;14.00;56.00;;;;;;5049092;28;20052;-74
2021/04/17 11:29:35;;;;;;;1.38;0.68;;;14.20;55.90;;;;;;5053411;28;20037;-74
2021/04/17 11:32:02;;;;;;;0.50;0.40;;;14.20;55.60;;;;;;5051550;28;20049;-75
2021/04/17 11:34:28;;;;;;;1.20;0.60;;;14.40;55.40;;;;;;5050339;28;20052;-75
2021/04/17 11:36:55;;;;;;;0.60;0.45;;;14.50;54.90;;;;;;5053354;28;20040;-75
2021/04/17 11:39:21;;;;;;;0.90;0.52;;;14.60;54.50;;;;;;5049422;28;20107;-74
2021/04/17 11:41:47;;;;;;;2.80;0.73;;;14.80;54.30;;;;;;5060335;28;20061;-75
2021/04/17 11:44:16;;;;;;;0.57;0.50;;;15.10;54.00;;;;;;5070819;28;20147;-76
2021/04/17 11:46:42;;;;;;;2.50;0.65;;;15.20;53.70;;;;;;5064725;28;20100;-77
2021/04/17 11:49:08;;;;;;;0.90;0.60;;;15.40;53.20;;;;;;5066917;28;20069;-75
2021/04/17 11:51:34;;;;;;;0.82;0.57;;;15.30;53.10;;;;;;5053877;28;20033;-75
2021/04/17 11:54:01;;;;;;;0.90;0.55;;;15.00;53.30;;;;;;5060465;28;20064;-76
2021/04/17 11:56:28;;;;;;;0.73;0.50;;;14.90;53.80;;;;;;5063799;28;20075;-73
2021/04/17 11:58:54;;;;;;;0.88;0.50;;;14.90;53.70;;;;;;5062477;28;20108;-74
2021/04/17 12:01:21;;;;;;;0.57;0.50;;;14.70;53.70;;;;;;5061167;28;20049;-73
2021/04/17 12:03:47;;;;;;;0.88;0.50;;;14.70;54.10;;;;;;5058430;28;20033;-75
2021/04/17 12:06:13;;;;;;;0.68;0.50;;;14.80;54.10;;;;;;5058952;28;20041;-77
2021/04/17 12:08:40;;;;;;;0.63;0.50;;;14.90;53.80;;;;;;5060070;28;20049;-78
2021/04/17 12:11:07;;;;;;;1.30;0.40;;;14.80;53.60;;;;;;5059681;28;20080;-77
2021/04/17 12:13:34;;;;;;;0.40;0.40;;;14.70;53.80;;;;;;5061903;28;20033;-76
2021/04/17 12:16:00;;;;;;;1.35;0.60;;;14.50;54.00;;;;;;5053032;28;20048;-74
2021/04/17 12:18:27;;;;;;;0.60;0.50;;;14.40;54.40;;;;;;5052687;28;20045;-76
2021/04/17 12:20:53;;;;;;;0.47;0.47;;;14.60;54.40;;;;;;5055067;28;20125;-75
2021/04/17 12:23:20;;;;;;;0.43;0.43;;;14.80;53.90;;;;;;5061329;28;20132;-76
2021/04/17 12:25:46;;;;;;;0.50;0.40;;;15.00;53.40;;;;;;5065173;28;20067;-77
2021/04/17 12:28:12;;;;;;;0.90;0.60;;;15.30;53.10;;;;;;5057272;28;20052;-77
2021/04/17 12:30:38;;;;;;;1.27;0.55;;;15.40;52.60;;;;;;5055343;28;20529;-78
2021/04/17 12:33:07;;;;;;;0.43;0.43;;;15.50;52.20;;;;;;5036494;28;20494;-78
2021/04/17 12:35:34;;;;;;;0.85;0.52;;;15.60;52.20;;;;;;5051863;28;20554;-77
2021/04/17 12:38:00;;;;;;;0.95;0.57;;;15.60;52.10;;;;;;5052112;28;20095;-79
2021/04/17 12:40:27;;;;;;;1.17;0.50;;;15.80;52.10;;;;;;5036905;28;20091;-77
2021/04/17 12:42:53;;;;;;;1.42;0.60;;;15.80;51.70;;;;;;5051951;28;20041;-78
2021/04/17 12:45:21;;;;;;;0.43;0.43;;;15.80;51.90;;;;;;5053959;28;20059;-76
2021/04/17 12:47:48;;;;;;;0.40;0.40;;;15.90;51.90;;;;;;5054824;28;20493;-77
2021/04/17 12:50:14;;;;;;;0.82;0.40;;;16.00;51.80;;;;;;5051595;28;20036;-78
2021/04/17 12:52:41;;;;;;;0.70;0.57;;;15.90;51.60;;;;;;5052757;28;20037;-77
2021/04/17 12:55:08;;;;;;;0.50;0.40;;;15.90;51.90;;;;;;5052332;28;20048;-77
2021/04/17 12:57:34;;;;;;;1.17;0.52;;;15.60;52.10;;;;;;5053062;28;20486;-75
2021/04/17 13:00:00;;;;;;;1.52;0.60;;;15.70;52.40;;;;;;5055985;28;20128;-76
2021/04/17 13:02:27;;;;;;;0.98;0.60;;;15.80;52.40;;;;;;5051633;28;20036;-74
2021/04/17 13:04:53;;;;;;;0.65;0.50;;;15.80;52.10;;;;;;5052886;28;20483;-76